Terminal Aerodrome Forecast
Issued by NWS

Home | Current Version | Previous Version | Text Only | Print | Product List | Glossary On
Versions: 1 2 3 4 5 6 7 8 9 10 11 12 13 14 15 16 17 18 19 20 21 22
498
FTUS46 KEKA 271127
TAFCEC
TAF
KCEC 271127Z 2712/2812 18003KT 1/4SM FG VV002
     FM271700 30003KT 1SM BR BKN002
     FM272100 25011KT 3SM BR BKN004
      TEMPO 2721/2724 SCT005
     FM280100 16008KT 1SM BR OVC003
     FM280500 14003KT 1/4SM FG OVC002=

USA.gov is the U.S. government's official web portal to all federal, state and local government web resources and services.